createdAt,value
2019-05-29T00:01:20.377Z,141.60
2019-05-29T00:03:45.639Z,141.82
2019-05-29T00:06:12.655Z,140.90
2019-05-29T00:08:40.830Z,142.43
2019-05-29T00:11:08.061Z,140.90
2019-05-29T00:13:35.162Z,140.20
2019-05-29T00:16:02.232Z,139.60
2019-05-29T00:18:29.649Z,140.55
2019-05-29T00:20:56.817Z,140.90
2019-05-29T00:23:23.994Z,141.43
2019-05-29T00:25:51.203Z,140.32
2019-05-29T00:28:18.326Z,140.55
2019-05-29T00:30:45.896Z,140.20
2019-05-29T00:33:14.308Z,139.72
2019-05-29T00:35:41.776Z,139.55
2019-05-29T00:38:10.703Z,138.32
2019-05-29T00:40:39.067Z,138.28
2019-05-29T00:43:07.332Z,139.88
2019-05-29T00:45:37.274Z,138.90
2019-05-29T00:48:04.326Z,139.12
2019-05-29T00:50:31.421Z,138.07
2019-05-29T00:53:00.058Z,139.57
2019-05-29T00:55:27.307Z,138.35
2019-05-29T00:57:54.391Z,139.52
2019-05-29T01:00:21.644Z,138.43
2019-05-29T01:02:52.441Z,138.75
2019-05-29T01:05:20.180Z,138.65
2019-05-29T01:07:49.012Z,139.95
2019-05-29T01:10:16.793Z,140.73
2019-05-29T01:12:43.768Z,140.05
2019-05-29T01:15:13.332Z,139.57
2019-05-29T01:17:40.743Z,140.15
2019-05-29T01:20:07.748Z,139.88
2019-05-29T01:22:34.829Z,140.37
2019-05-29T01:25:01.921Z,141.07
2019-05-29T01:27:28.950Z,140.52
2019-05-29T01:29:56.003Z,141.88
2019-05-29T01:32:24.529Z,141.18
2019-05-29T01:34:51.693Z,140.60
2019-05-29T01:37:19.934Z,139.18
2019-05-29T01:39:48.044Z,139.05
2019-05-29T01:42:15.220Z,138.65
2019-05-29T01:44:42.358Z,143.13
2019-05-29T01:47:09.602Z,138.82
2019-05-29T01:49:38.454Z,139.47
2019-05-29T01:52:05.539Z,139.03
2019-05-29T01:54:32.644Z,139.77
2019-05-29T01:56:59.980Z,139.65
2019-05-29T01:59:28.818Z,141.80
2019-05-29T02:01:56.104Z,139.10
2019-05-29T02:04:24.203Z,139.25
2019-05-29T02:06:51.505Z,139.07
2019-05-29T02:09:18.633Z,139.88
2019-05-29T02:11:45.787Z,138.70
2019-05-29T02:14:12.829Z,141.28
2019-05-29T02:16:39.916Z,140.22
2019-05-29T02:19:09.143Z,140.35
2019-05-29T02:21:37.340Z,142.53
2019-05-29T02:24:04.509Z,141.95
2019-05-29T02:26:32.884Z,141.80
2019-05-29T02:28:59.935Z,142.50
2019-05-29T02:31:29.796Z,140.35
2019-05-29T02:33:56.834Z,141.55
2019-05-29T02:36:24.602Z,140.22
2019-05-29T02:38:52.314Z,141.97
2019-05-29T02:41:21.172Z,144.37
2019-05-29T02:43:50.194Z,140.92
2019-05-29T02:46:17.244Z,140.62
2019-05-29T02:48:44.275Z,141.65
2019-05-29T02:51:12.345Z,141.57
2019-05-29T02:53:39.671Z,142.93
2019-05-29T02:56:06.724Z,142.65
2019-05-29T02:58:33.801Z,143.45
2019-05-29T03:01:02.782Z,144.15
2019-05-29T03:03:37.998Z,142.28
2019-05-29T03:05:59.345Z,141.35
2019-05-29T03:08:27.663Z,141.90
2019-05-29T03:10:55.444Z,142.03
2019-05-29T03:13:25.468Z,141.92
2019-05-29T03:16:08.504Z,140.50
2019-05-29T03:18:23.774Z,139.95
2019-05-29T03:20:50.884Z,141.07
2019-05-29T03:23:19.885Z,140.88
2019-05-29T03:25:46.900Z,142.85
2019-05-29T03:28:15.077Z,141.57
2019-05-29T03:30:46.103Z,141.28
2019-05-29T03:33:11.765Z,141.10
2019-05-29T03:35:47.099Z,141.50
2019-05-29T03:38:07.963Z,141.20
2019-05-29T03:40:35.324Z,140.18
2019-05-29T03:43:02.715Z,142.13
2019-05-29T03:45:31.329Z,140.43
2019-05-29T03:47:58.694Z,140.52
2019-05-29T03:50:26.676Z,142.00
2019-05-29T03:52:54.774Z,140.95
2019-05-29T03:55:21.805Z,138.88
2019-05-29T03:57:48.844Z,139.05
2019-05-29T04:00:16.095Z,140.62
2019-05-29T04:02:43.143Z,141.43
2019-05-29T04:05:11.164Z,140.18
2019-05-29T04:07:38.600Z,140.85
2019-05-29T04:10:07.273Z,139.18
2019-05-29T04:12:38.076Z,140.43
2019-05-29T04:15:05.925Z,138.15
2019-05-29T04:17:35.679Z,139.97
2019-05-29T04:20:03.961Z,139.92
2019-05-29T04:22:40.440Z,139.22
2019-05-29T04:25:08.225Z,139.77
2019-05-29T04:27:38.667Z,139.75
2019-05-29T04:30:06.123Z,140.40
2019-05-29T04:32:34.192Z,138.47
2019-05-29T04:35:01.555Z,139.12
2019-05-29T04:37:30.151Z,138.60
2019-05-29T04:39:57.684Z,139.12
2019-05-29T04:42:24.973Z,138.57
2019-05-29T04:44:53.841Z,139.92
2019-05-29T04:47:21.974Z,138.88
2019-05-29T04:49:50.111Z,141.62
2019-05-29T04:52:17.176Z,139.52
2019-05-29T04:54:44.308Z,140.50
2019-05-29T04:57:11.344Z,139.90
2019-05-29T04:59:39.240Z,140.03
2019-05-29T05:02:06.460Z,140.68
2019-05-29T05:04:37.264Z,140.82
2019-05-29T05:07:04.502Z,141.88
2019-05-29T05:09:33.428Z,141.32
2019-05-29T05:12:04.157Z,142.00
2019-05-29T05:14:31.747Z,143.37
2019-05-29T05:16:59.194Z,143.57
2019-05-29T05:19:31.794Z,141.57
2019-05-29T05:21:59.168Z,141.92
2019-05-29T05:24:27.693Z,141.77
2019-05-29T05:26:54.918Z,140.62
2019-05-29T05:29:22.929Z,141.47
2019-05-29T05:31:50.181Z,141.40
2019-05-29T05:34:17.216Z,139.32
2019-05-29T05:36:50.390Z,144.02
2019-05-29T05:39:31.203Z,140.10
2019-05-29T05:41:58.282Z,142.47
2019-05-29T05:44:25.529Z,142.05
2019-05-29T05:46:52.946Z,141.45
2019-05-29T05:49:20.023Z,139.20
2019-05-29T05:51:47.074Z,141.80
2019-05-29T05:54:14.598Z,139.15
2019-05-29T05:56:42.114Z,141.50
2019-05-29T05:59:10.239Z,141.55
2019-05-29T06:01:38.402Z,143.25
2019-05-29T06:04:05.574Z,141.68
2019-05-29T06:06:33.841Z,142.50
2019-05-29T06:09:00.937Z,140.65
2019-05-29T06:11:28.151Z,141.12
2019-05-29T06:13:55.195Z,140.12
2019-05-29T06:16:22.303Z,140.28
2019-05-29T06:18:49.419Z,141.25
2019-05-29T06:21:16.497Z,140.37
2019-05-29T06:23:43.854Z,144.37
2019-05-29T06:26:12.216Z,145.77
2019-05-29T06:28:41.629Z,144.00
2019-05-29T06:31:09.061Z,141.43
2019-05-29T06:33:37.845Z,142.15
2019-05-29T06:36:05.261Z,141.28
2019-05-29T06:38:33.632Z,141.47
2019-05-29T06:41:04.041Z,141.57
2019-05-29T06:43:35.819Z,141.22
2019-05-29T06:46:03.954Z,141.92
2019-05-29T06:48:42.586Z,141.10
2019-05-29T06:51:04.043Z,141.95
2019-05-29T06:53:31.214Z,142.82
2019-05-29T06:56:01.055Z,142.00
2019-05-29T06:58:31.821Z,142.98
2019-05-29T07:01:00.455Z,143.55
2019-05-29T07:03:29.778Z,143.43
2019-05-29T07:05:58.766Z,144.75
2019-05-29T07:08:39.109Z,144.30
2019-05-29T07:11:00.740Z,146.02
2019-05-29T07:13:35.181Z,144.90
2019-05-29T07:16:02.327Z,143.50
2019-05-29T07:18:38.986Z,146.43
2019-05-29T07:21:07.745Z,144.80
2019-05-29T07:23:39.063Z,144.95
2019-05-29T07:26:11.320Z,145.85
2019-05-29T07:29:03.044Z,146.32
2019-05-29T07:31:16.548Z,144.97
2019-05-29T07:33:43.678Z,146.47
2019-05-29T07:36:11.064Z,146.55
2019-05-29T07:38:39.558Z,144.62
2019-05-29T07:41:06.943Z,143.28
2019-05-29T07:43:33.973Z,144.65
2019-05-29T07:46:01.151Z,144.50
2019-05-29T07:48:28.192Z,146.65
2019-05-29T07:51:06.586Z,145.57
2019-05-29T07:53:24.340Z,144.77
2019-05-29T07:55:51.416Z,146.62
2019-05-29T07:58:18.494Z,145.10
2019-05-29T08:01:07.680Z,146.25
2019-05-29T08:03:14.711Z,147.60
2019-05-29T08:05:46.201Z,146.05
2019-05-29T08:08:13.512Z,147.22
2019-05-29T08:10:41.746Z,146.30
2019-05-29T08:13:09.082Z,146.40
2019-05-29T08:15:51.970Z,144.80
2019-05-29T08:18:05.993Z,147.60
2019-05-29T08:20:33.052Z,145.28
2019-05-29T08:23:00.098Z,146.55
2019-05-29T08:25:27.164Z,146.55
2019-05-29T08:27:54.789Z,148.75
2019-05-29T08:30:26.309Z,147.65
2019-05-29T08:32:56.581Z,146.32
2019-05-29T08:35:23.865Z,146.22
2019-05-29T08:37:53.892Z,147.45
2019-05-29T08:40:21.316Z,147.95
2019-05-29T08:42:49.315Z,147.65
2019-05-29T08:45:16.474Z,147.93
2019-05-29T08:47:43.595Z,146.28
2019-05-29T08:50:18.309Z,146.02
2019-05-29T08:52:39.617Z,147.47
2019-05-29T08:55:07.470Z,150.60
2019-05-29T08:57:34.520Z,144.95
2019-05-29T09:00:01.719Z,145.15
2019-05-29T09:02:28.967Z,146.43
2019-05-29T09:04:56.013Z,147.45
2019-05-29T09:07:24.654Z,147.15
2019-05-29T09:09:51.713Z,147.68
2019-05-29T09:12:18.814Z,147.45
2019-05-29T09:14:45.893Z,146.57
2019-05-29T09:17:14.621Z,147.20
2019-05-29T09:19:41.892Z,147.13
2019-05-29T09:22:09.227Z,146.50
2019-05-29T09:24:36.377Z,147.05
2019-05-29T09:27:03.473Z,146.55
2019-05-29T09:29:30.637Z,147.95
2019-05-29T09:31:57.663Z,147.15
2019-05-29T09:34:24.770Z,148.57
2019-05-29T09:36:55.483Z,148.62
2019-05-29T09:39:21.093Z,149.60
2019-05-29T09:41:48.287Z,148.05
2019-05-29T09:44:31.167Z,147.87
2019-05-29T09:46:45.660Z,147.78
2019-05-29T09:49:13.057Z,149.12
2019-05-29T09:51:40.310Z,148.45
2019-05-29T09:54:07.498Z,149.47
2019-05-29T09:56:34.519Z,150.47
2019-05-29T09:59:01.831Z,150.32
2019-05-29T10:01:30.548Z,148.82
2019-05-29T10:04:00.044Z,149.42
2019-05-29T10:06:28.362Z,148.28
2019-05-29T10:08:56.223Z,148.25
2019-05-29T10:11:23.929Z,148.43
2019-05-29T10:13:50.982Z,149.38
2019-05-29T10:16:18.009Z,147.32
2019-05-29T10:18:45.280Z,147.47
2019-05-29T10:21:13.471Z,151.00
2019-05-29T10:23:40.598Z,150.50
2019-05-29T10:26:07.865Z,151.07
2019-05-29T10:28:49.961Z,150.10
2019-05-29T10:31:04.880Z,151.97
2019-05-29T10:33:32.185Z,148.87
2019-05-29T10:36:03.447Z,151.27
2019-05-29T10:38:28.373Z,149.87
2019-05-29T10:41:05.840Z,148.78
2019-05-29T10:43:34.169Z,147.87
2019-05-29T10:45:55.272Z,148.28
2019-05-29T10:48:22.626Z,149.27
2019-05-29T10:50:52.165Z,148.87
2019-05-29T10:53:20.523Z,148.90
2019-05-29T10:55:48.597Z,149.57
2019-05-29T10:58:15.909Z,148.17
2019-05-29T11:00:45.414Z,149.10
2019-05-29T11:03:12.629Z,149.53
2019-05-29T11:05:39.695Z,149.77
2019-05-29T11:08:06.733Z,150.18
2019-05-29T11:10:33.796Z,150.50
2019-05-29T11:13:00.891Z,152.17
2019-05-29T11:15:27.931Z,151.25
2019-05-29T11:17:55.396Z,149.97
2019-05-29T11:20:22.642Z,150.82
2019-05-29T11:22:49.772Z,149.55
2019-05-29T11:25:23.586Z,148.93
2019-05-29T11:27:50.501Z,150.22
2019-05-29T11:30:17.951Z,148.13
2019-05-29T11:32:47.513Z,147.20
2019-05-29T11:35:14.156Z,148.05
2019-05-29T11:37:41.214Z,148.30
2019-05-29T11:40:08.578Z,147.50
2019-05-29T11:42:35.916Z,148.28
2019-05-29T11:45:05.006Z,147.87
2019-05-29T11:47:34.056Z,149.60
2019-05-29T11:50:16.617Z,147.95
2019-05-29T11:52:42.952Z,148.45
2019-05-29T11:55:08.114Z,148.22
2019-05-29T11:57:39.748Z,151.63
2019-05-29T12:00:19.407Z,151.32
2019-05-29T12:02:39.813Z,152.40
2019-05-29T12:05:09.213Z,151.42
2019-05-29T12:07:36.284Z,153.15
2019-05-29T12:10:05.617Z,151.68
2019-05-29T12:12:34.135Z,153.12
2019-05-29T12:15:10.957Z,152.72
2019-05-29T12:17:32.517Z,157.20
2019-05-29T12:20:01.187Z,158.63
2019-05-29T12:22:28.746Z,156.78
2019-05-29T12:24:56.534Z,155.05
2019-05-29T12:27:25.297Z,155.63
2019-05-29T12:29:52.673Z,153.42
2019-05-29T12:32:19.764Z,154.78
2019-05-29T12:34:53.617Z,154.03
2019-05-29T12:37:17.530Z,156.78
2019-05-29T12:39:44.616Z,150.12
2019-05-29T12:42:11.702Z,149.05
2019-05-29T12:44:38.777Z,150.25
2019-05-29T12:47:06.536Z,147.95
2019-05-29T12:49:33.899Z,146.75
2019-05-29T12:52:02.362Z,148.60
2019-05-29T12:54:30.236Z,148.93
2019-05-29T12:56:57.861Z,149.07
2019-05-29T12:59:25.864Z,151.00
2019-05-29T13:01:58.505Z,151.85
2019-05-29T13:05:02.536Z,152.72
2019-05-29T13:07:04.575Z,149.75
2019-05-29T13:09:31.853Z,149.42
2019-05-29T13:11:58.909Z,153.05
2019-05-29T13:14:27.755Z,156.75
2019-05-29T13:16:54.998Z,158.68
2019-05-29T13:19:22.035Z,153.75
2019-05-29T13:21:49.203Z,157.07
2019-05-29T13:24:16.381Z,153.50
2019-05-29T13:26:44.337Z,154.40
2019-05-29T13:29:11.388Z,154.70
2019-05-29T13:31:38.574Z,154.07
2019-05-29T13:34:09.200Z,153.20
2019-05-29T13:36:36.327Z,153.90
2019-05-29T13:39:07.173Z,154.65
2019-05-29T13:41:34.340Z,155.03
2019-05-29T13:44:02.769Z,157.95
2019-05-29T13:46:31.358Z,158.20
2019-05-29T13:48:58.906Z,159.37
2019-05-29T13:51:26.449Z,162.82
2019-05-29T13:54:04.782Z,165.37
2019-05-29T13:56:24.363Z,157.82
2019-05-29T13:58:51.562Z,159.78
2019-05-29T14:01:18.652Z,157.72
2019-05-29T14:03:50.205Z,157.80
2019-05-29T14:06:14.708Z,153.57
2019-05-29T14:08:41.803Z,154.18
2019-05-29T14:11:09.163Z,153.02
2019-05-29T14:13:42.544Z,154.70
2019-05-29T14:16:09.720Z,155.87
2019-05-29T14:18:47.448Z,153.95
2019-05-29T14:21:14.640Z,154.95
2019-05-29T14:23:42.188Z,156.22
2019-05-29T14:26:10.615Z,153.25
2019-05-29T14:28:38.742Z,155.57
2019-05-29T14:31:06.027Z,157.70
2019-05-29T14:33:35.140Z,160.72
2019-05-29T14:36:03.434Z,155.32
2019-05-29T14:38:30.797Z,157.15
2019-05-29T14:40:57.882Z,153.97
2019-05-29T14:43:28.080Z,151.78
2019-05-29T14:45:57.029Z,153.78
2019-05-29T14:48:24.454Z,153.25
2019-05-29T14:50:51.558Z,151.70
2019-05-29T14:53:18.620Z,149.97
2019-05-29T14:55:52.568Z,151.90
2019-05-29T14:58:20.241Z,156.12
2019-05-29T15:00:47.332Z,152.93
2019-05-29T15:03:14.419Z,152.50
2019-05-29T15:05:44.224Z,156.20
2019-05-29T15:08:14.176Z,151.90
2019-05-29T15:10:41.361Z,150.00
2019-05-29T15:13:09.171Z,150.80
2019-05-29T15:15:37.378Z,150.42
2019-05-29T15:18:06.872Z,149.72
2019-05-29T15:20:34.175Z,149.93
2019-05-29T15:23:02.521Z,149.82
2019-05-29T15:25:31.332Z,149.75
2019-05-29T15:27:58.423Z,148.85
2019-05-29T15:30:25.462Z,150.38
2019-05-29T15:32:52.605Z,153.62
2019-05-29T15:35:20.218Z,153.65
2019-05-29T15:37:47.544Z,155.25
2019-05-29T15:40:15.094Z,155.32
2019-05-29T15:42:42.140Z,156.40
2019-05-29T15:45:11.894Z,160.43
2019-05-29T15:47:41.210Z,162.40
2019-05-29T15:50:11.379Z,159.15
2019-05-29T15:52:38.723Z,157.65
2019-05-29T15:55:22.012Z,157.35
2019-05-29T15:57:36.848Z,155.27
2019-05-29T16:00:05.050Z,152.17
2019-05-29T16:02:32.630Z,152.82
2019-05-29T16:04:59.759Z,152.78
2019-05-29T16:07:27.609Z,153.30
2019-05-29T16:09:54.646Z,155.43
2019-05-29T16:12:21.724Z,159.78
2019-05-29T16:14:50.643Z,157.05
2019-05-29T16:17:17.891Z,155.93
2019-05-29T16:19:45.117Z,160.12
2019-05-29T16:22:12.497Z,160.90
2019-05-29T16:24:39.662Z,161.03
2019-05-29T16:27:10.616Z,162.90
2019-05-29T16:29:38.829Z,162.32
2019-05-29T16:32:05.953Z,155.32
2019-05-29T16:34:33.096Z,155.95
2019-05-29T16:37:00.304Z,155.67
2019-05-29T16:39:27.430Z,151.35
2019-05-29T16:41:56.362Z,153.25
2019-05-29T16:44:29.215Z,153.50
2019-05-29T16:46:52.789Z,156.45
2019-05-29T16:49:21.267Z,155.20
2019-05-29T16:51:48.940Z,152.72
2019-05-29T16:54:17.197Z,152.15
2019-05-29T16:56:44.367Z,154.90
2019-05-29T16:59:11.436Z,155.32
2019-05-29T17:01:38.483Z,155.63
2019-05-29T17:04:05.589Z,154.38
2019-05-29T17:06:32.666Z,154.40
2019-05-29T17:09:01.545Z,153.23
2019-05-29T17:11:31.999Z,154.65
2019-05-29T17:14:08.598Z,155.87
2019-05-29T17:16:54.614Z,154.30
2019-05-29T17:19:23.161Z,155.90
2019-05-29T17:21:51.590Z,156.43
2019-05-29T17:24:18.762Z,153.18
2019-05-29T17:26:45.943Z,154.15
2019-05-29T17:29:13.000Z,152.43
2019-05-29T17:31:40.577Z,154.38
2019-05-29T17:34:08.699Z,151.75
2019-05-29T17:36:35.865Z,150.90
2019-05-29T17:39:05.969Z,149.30
2019-05-29T17:41:33.429Z,150.40
2019-05-29T17:44:00.534Z,152.57
2019-05-29T17:46:27.637Z,148.70
2019-05-29T17:48:56.393Z,148.90
2019-05-29T17:51:24.163Z,150.55
2019-05-29T17:53:51.357Z,151.02
2019-05-29T17:56:31.754Z,153.68
2019-05-29T17:58:50.902Z,150.20
2019-05-29T18:01:18.263Z,151.60
2019-05-29T18:03:45.534Z,151.37
2019-05-29T18:06:12.677Z,154.00
2019-05-29T18:08:41.659Z,154.90
2019-05-29T18:11:10.485Z,154.18
2019-05-29T18:13:38.993Z,155.55
2019-05-29T18:16:06.532Z,152.65
2019-05-29T18:21:14.900Z,153.80
2019-05-29T18:23:42.002Z,153.75
2019-05-29T18:26:09.260Z,152.60
2019-05-29T18:28:37.509Z,152.55
2019-05-29T18:31:04.556Z,153.27
2019-05-29T18:33:33.222Z,153.60
2019-05-29T18:36:00.776Z,152.00
2019-05-29T18:38:30.815Z,152.15
2019-05-29T18:40:57.928Z,152.07
2019-05-29T18:43:25.016Z,151.63
2019-05-29T18:45:52.433Z,150.95
2019-05-29T18:48:19.508Z,152.10
2019-05-29T18:50:46.809Z,152.55
2019-05-29T18:53:14.494Z,154.40
2019-05-29T18:55:41.889Z,151.72
2019-05-29T18:58:08.993Z,150.32
2019-05-29T19:00:37.361Z,148.90
2019-05-29T19:03:05.183Z,147.68
2019-05-29T19:05:32.554Z,149.30
2019-05-29T19:07:59.653Z,149.35
2019-05-29T19:10:27.753Z,149.90
2019-05-29T19:12:55.341Z,151.15
2019-05-29T19:15:23.754Z,149.72
2019-05-29T19:17:51.253Z,149.75
2019-05-29T19:20:18.852Z,150.32
2019-05-29T19:22:45.935Z,149.23
2019-05-29T19:25:15.962Z,148.78
2019-05-29T19:27:47.228Z,145.92
2019-05-29T19:30:15.905Z,146.95
2019-05-29T19:32:43.220Z,146.87
2019-05-29T19:35:12.903Z,145.77
2019-05-29T19:37:41.985Z,146.28
2019-05-29T19:40:09.575Z,146.07
2019-05-29T19:42:37.606Z,144.53
2019-05-29T19:45:16.567Z,145.25
2019-05-29T19:48:08.635Z,145.10
2019-05-29T19:50:41.623Z,147.28
2019-05-29T19:53:09.170Z,144.55
2019-05-29T19:55:39.449Z,148.13
2019-05-29T19:58:08.477Z,147.50
2019-05-29T20:00:56.493Z,151.20
2019-05-29T20:03:23.607Z,146.62
2019-05-29T20:05:52.970Z,146.20
2019-05-29T20:08:24.177Z,148.70
2019-05-29T20:10:51.601Z,145.87
2019-05-29T20:13:22.426Z,145.25
2019-05-29T20:15:49.742Z,144.50
2019-05-29T20:18:16.923Z,143.72
2019-05-29T20:20:47.009Z,146.90
2019-05-29T20:23:14.431Z,144.43
2019-05-29T20:25:41.895Z,143.52
2019-05-29T20:28:11.762Z,144.70
2019-05-29T20:30:42.511Z,144.72
2019-05-29T20:33:10.068Z,146.25
2019-05-29T20:35:37.330Z,144.40
2019-05-29T20:38:07.539Z,142.45
2019-05-29T20:40:35.166Z,147.10
2019-05-29T20:43:02.408Z,143.70
2019-05-29T20:45:29.493Z,144.40
2019-05-29T20:47:56.540Z,144.35
2019-05-29T20:50:24.777Z,143.78
2019-05-29T20:52:53.042Z,145.07
2019-05-29T20:55:20.112Z,144.55
2019-05-29T20:57:57.201Z,144.65
2019-05-29T21:00:25.860Z,143.40
2019-05-29T21:02:53.078Z,143.50
2019-05-29T21:05:21.740Z,146.40
2019-05-29T21:07:48.838Z,145.80
2019-05-29T21:10:16.000Z,145.30
2019-05-29T21:12:47.454Z,145.20
2019-05-29T21:15:15.887Z,148.45
2019-05-29T21:17:49.680Z,144.37
2019-05-29T21:20:16.819Z,146.25
2019-05-29T21:22:44.958Z,144.07
2019-05-29T21:25:17.090Z,143.05
2019-05-29T21:27:45.397Z,145.92
2019-05-29T21:30:25.311Z,146.37
2019-05-29T21:32:52.938Z,144.20
2019-05-29T21:35:20.020Z,144.62
2019-05-29T21:37:47.494Z,144.85
2019-05-29T21:40:16.827Z,144.90
2019-05-29T21:42:47.004Z,143.52
2019-05-29T21:45:14.850Z,142.40
2019-05-29T21:47:43.578Z,143.87
2019-05-29T21:50:11.211Z,141.90
2019-05-29T21:52:39.469Z,142.65
2019-05-29T21:55:09.967Z,144.32
2019-05-29T21:57:43.901Z,144.10
2019-05-29T22:00:13.805Z,142.70
2019-05-29T22:02:44.507Z,142.80
2019-05-29T22:05:26.432Z,141.57
2019-05-29T22:08:02.233Z,143.37
2019-05-29T22:10:29.958Z,143.37
2019-05-29T22:12:58.550Z,142.53
2019-05-29T22:15:25.940Z,142.03
2019-05-29T22:17:53.200Z,144.60
2019-05-29T22:20:20.243Z,142.13
2019-05-29T22:22:47.330Z,142.60
2019-05-29T22:25:14.713Z,144.30
2019-05-29T22:27:42.876Z,141.95
2019-05-29T22:30:10.055Z,142.22
2019-05-29T22:32:37.118Z,142.65
2019-05-29T22:35:04.534Z,142.35
2019-05-29T22:37:32.116Z,141.73
2019-05-29T22:39:59.632Z,142.25
2019-05-29T22:42:28.655Z,142.32
2019-05-29T22:44:55.920Z,142.13
2019-05-29T22:47:23.169Z,140.88
2019-05-29T22:49:51.572Z,141.85
2019-05-29T22:52:18.903Z,142.20
2019-05-29T22:54:45.926Z,140.73
2019-05-29T22:57:12.997Z,145.22
2019-05-29T22:59:40.229Z,142.00
2019-05-29T23:02:09.864Z,141.75
2019-05-29T23:04:37.020Z,141.18
2019-05-29T23:07:05.248Z,141.82
2019-05-29T23:09:32.261Z,142.30
2019-05-29T23:12:00.490Z,143.43
2019-05-29T23:14:27.611Z,144.37
2019-05-29T23:16:54.678Z,143.30
2019-05-29T23:19:21.848Z,142.90
2019-05-29T23:21:49.517Z,140.97
2019-05-29T23:24:17.691Z,140.52
2019-05-29T23:26:44.861Z,141.30
2019-05-29T23:29:11.924Z,141.80
2019-05-29T23:31:39.042Z,139.90
2019-05-29T23:34:06.101Z,139.95
2019-05-29T23:36:35.258Z,140.43
2019-05-29T23:39:03.984Z,140.65
2019-05-29T23:41:31.038Z,139.52
2019-05-29T23:43:59.306Z,141.18
2019-05-29T23:46:26.606Z,140.60
2019-05-29T23:48:53.654Z,139.60
2019-05-29T23:51:20.737Z,138.65
2019-05-29T23:53:49.980Z,139.88
2019-05-29T23:56:17.301Z,139.35
2019-05-29T23:58:44.498Z,140.00
